Time;durP1;ratioP1;P1;durP2;ratioP2;P2;SDS_P1;SDS_P2;PMS_P1;PMS_P2;Temp;Humidity;BMP_temperature;BMP_pressure;BME280_temperature;BME280_humidity;BME280_pressure;Samples;Min_cycle;Max_cycle;Signal;HPM_P1;HPM_P2
2021/01/19 00:01:12;;;;;;;21.23;12.32;;;5.40;99.90;;;;;;5076666;28;20035;-73
2021/01/19 00:03:38;;;;;;;23.25;13.07;;;5.40;99.90;;;;;;5058807;28;20028;-73
2021/01/19 00:06:05;;;;;;;24.15;12.38;;;5.40;99.90;;;;;;5077120;28;20039;-73
2021/01/19 00:08:31;;;;;;;20.20;11.48;;;5.40;99.90;;;;;;5076419;28;20037;-73
2021/01/19 00:10:58;;;;;;;18.35;10.90;;;5.40;99.90;;;;;;5077039;28;20369;-73
2021/01/19 00:13:24;;;;;;;18.52;10.80;;;5.40;99.90;;;;;;5076728;28;20012;-74
2021/01/19 00:15:50;;;;;;;18.15;10.75;;;5.40;99.90;;;;;;5076936;28;20432;-73
2021/01/19 00:18:16;;;;;;;19.02;11.35;;;5.50;99.90;;;;;;5076637;28;20161;-73
2021/01/19 00:20:42;;;;;;;17.73;11.07;;;5.50;99.90;;;;;;5076896;28;20036;-73
2021/01/19 00:23:12;;;;;;;23.52;11.25;;;5.50;99.90;;;;;;5075636;28;20034;-73
2021/01/19 00:25:38;;;;;;;20.20;11.50;;;5.40;99.90;;;;;;5059666;28;20359;-73
2021/01/19 00:28:04;;;;;;;21.83;11.75;;;5.40;99.90;;;;;;5076632;28;20049;-73
2021/01/19 00:30:29;;;;;;;20.30;11.18;;;5.40;99.90;;;;;;5076655;28;20024;-73
2021/01/19 00:32:55;;;;;;;23.45;11.15;;;5.40;99.90;;;;;;5076349;28;20040;-73
2021/01/19 00:35:20;;;;;;;17.88;10.38;;;5.40;99.90;;;;;;5074772;28;20020;-73
2021/01/19 00:37:46;;;;;;;24.67;11.40;;;5.40;99.90;;;;;;5075348;28;20039;-73
2021/01/19 00:40:12;;;;;;;25.90;11.82;;;5.30;99.90;;;;;;5076014;28;20027;-73
2021/01/19 00:42:37;;;;;;;23.38;12.18;;;5.30;99.90;;;;;;5074618;28;20174;-73
2021/01/19 00:45:04;;;;;;;26.90;12.35;;;5.40;99.90;;;;;;5076408;28;20099;-73
2021/01/19 00:47:30;;;;;;;19.30;11.85;;;5.40;99.90;;;;;;5076264;28;20025;-73
2021/01/19 00:49:55;;;;;;;25.48;11.57;;;5.30;99.90;;;;;;5075752;28;20038;-72
2021/01/19 00:52:20;;;;;;;23.25;11.95;;;5.40;99.90;;;;;;5076238;28;20365;-73
2021/01/19 00:54:46;;;;;;;24.15;11.35;;;5.40;99.90;;;;;;5075048;28;20037;-73
2021/01/19 00:57:11;;;;;;;21.92;10.63;;;5.40;99.90;;;;;;5076164;28;20025;-73
2021/01/19 00:59:37;;;;;;;14.88;8.45;;;5.40;99.90;;;;;;5076141;28;20347;-73
2021/01/19 01:02:03;;;;;;;15.90;8.52;;;5.40;99.90;;;;;;5076092;28;20432;-73
2021/01/19 01:04:28;;;;;;;16.17;7.88;;;5.40;99.90;;;;;;5075741;28;20055;-73
2021/01/19 01:06:54;;;;;;;18.05;8.80;;;5.40;99.90;;;;;;5075677;28;20381;-73
2021/01/19 01:09:20;;;;;;;23.00;9.52;;;5.40;99.90;;;;;;5057341;28;20028;-73
2021/01/19 01:11:45;;;;;;;16.48;9.13;;;5.40;99.90;;;;;;5075878;28;20107;-73
2021/01/19 01:14:12;;;;;;;19.85;10.02;;;5.30;99.90;;;;;;5075604;28;20051;-73
2021/01/19 01:16:39;;;;;;;18.15;11.05;;;5.40;99.90;;;;;;5075546;28;20012;-73
2021/01/19 01:19:06;;;;;;;23.60;11.50;;;5.30;99.90;;;;;;5075750;28;20025;-73
2021/01/19 01:21:36;;;;;;;21.08;9.82;;;5.40;99.90;;;;;;5075455;28;20027;-73
2021/01/19 01:24:03;;;;;;;21.60;11.90;;;5.40;99.90;;;;;;5075106;28;20466;-73
2021/01/19 01:26:28;;;;;;;27.90;12.13;;;5.40;99.90;;;;;;5074490;28;20167;-73
2021/01/19 01:28:54;;;;;;;28.83;13.77;;;5.40;99.90;;;;;;5074990;28;20115;-73
2021/01/19 01:31:20;;;;;;;26.95;13.23;;;5.40;99.90;;;;;;5074072;28;20036;-73
2021/01/19 01:33:47;;;;;;;25.77;13.77;;;5.40;99.90;;;;;;5074080;28;20035;-73
2021/01/19 01:36:12;;;;;;;26.83;13.13;;;5.40;99.90;;;;;;5075448;28;20056;-72
2021/01/19 01:38:38;;;;;;;29.50;12.75;;;5.40;99.90;;;;;;5075109;28;20028;-73
2021/01/19 01:41:18;;;;;;;23.55;12.77;;;5.40;99.90;;;;;;5075053;28;20465;-73
2021/01/19 01:43:45;;;;;;;26.92;12.20;;;5.40;99.90;;;;;;5075228;28;20423;-73
2021/01/19 01:46:12;;;;;;;25.58;11.63;;;5.40;99.90;;;;;;5056689;28;20466;-73
2021/01/19 01:48:40;;;;;;;24.55;12.10;;;5.40;99.90;;;;;;5074739;28;20420;-72
2021/01/19 01:51:07;;;;;;;21.77;11.57;;;5.40;99.90;;;;;;5074747;28;20078;-73
2021/01/19 01:53:32;;;;;;;28.05;11.77;;;5.40;99.90;;;;;;5072747;28;20067;-73
2021/01/19 01:55:58;;;;;;;24.27;10.75;;;5.40;99.90;;;;;;5073177;28;20040;-73
2021/01/19 01:58:25;;;;;;;29.55;10.00;;;5.50;99.90;;;;;;5073727;28;20448;-73
2021/01/19 02:00:50;;;;;;;26.95;10.90;;;5.50;99.90;;;;;;5074597;28;20480;-73
2021/01/19 02:03:17;;;;;;;20.77;10.60;;;5.50;99.90;;;;;;5073696;28;20025;-73
2021/01/19 02:05:42;;;;;;;19.92;9.38;;;5.40;99.90;;;;;;5074810;28;20446;-73
2021/01/19 02:08:48;;;;;;;21.08;9.07;;;5.50;99.90;;;;;;5074150;28;20127;-73
2021/01/19 02:11:23;;;;;;;22.27;8.25;;;5.40;99.90;;;;;;5072751;28;20412;-72
2021/01/19 02:14:11;;;;;;;34.15;8.25;;;5.50;99.90;;;;;;5074618;28;20059;-73
2021/01/19 02:16:45;;;;;;;21.10;8.50;;;5.50;99.90;;;;;;5072763;28;20028;-73
2021/01/19 02:22:38;;;;;;;19.13;7.40;;;5.50;99.90;;;;;;5091898;28;20401;-73
2021/01/19 02:25:30;;;;;;;21.20;9.43;;;5.40;99.90;;;;;;5089493;28;20123;-73
2021/01/19 02:28:21;;;;;;;23.67;7.97;;;5.50;99.90;;;;;;5089565;28;20022;-73
2021/01/19 02:31:11;;;;;;;18.80;8.18;;;5.50;99.90;;;;;;5090957;28;20020;-73
2021/01/19 02:40:00;;;;;;;16.27;8.57;;;5.40;99.90;;;;;;5111438;27;20855;-72
2021/01/19 02:42:33;;;;;;;22.38;8.07;;;5.40;99.90;;;;;;5111320;28;20457;-71
2021/01/19 02:45:03;;;;;;;22.20;7.28;;;5.40;99.90;;;;;;5111814;28;20066;-73
2021/01/19 02:47:29;;;;;;;13.70;7.15;;;5.40;99.90;;;;;;5111513;28;20027;-73
2021/01/19 02:49:54;;;;;;;15.52;7.15;;;5.40;99.90;;;;;;5111771;28;20028;-73
2021/01/19 02:52:21;;;;;;;14.00;6.97;;;5.40;99.90;;;;;;5111710;28;20028;-72
2021/01/19 02:54:48;;;;;;;15.75;6.38;;;5.40;99.90;;;;;;5111144;28;20362;-72
2021/01/19 02:57:36;;;;;;;16.30;6.00;;;5.40;99.90;;;;;;5111546;28;20024;-73
2021/01/19 03:02:47;;;;;;;15.63;6.00;;;5.50;99.90;;;;;;5112159;27;20347;-72
2021/01/19 03:05:14;;;;;;;14.80;5.45;;;5.40;99.90;;;;;;5111308;28;20036;-72
2021/01/19 03:07:44;;;;;;;8.48;4.65;;;5.40;99.90;;;;;;5111502;28;20085;-72
2021/01/19 03:10:12;;;;;;;15.02;5.35;;;5.40;99.90;;;;;;5111505;28;20020;-72
2021/01/19 03:12:42;;;;;;;11.77;5.38;;;5.40;99.90;;;;;;5111725;28;20024;-71
2021/01/19 03:15:08;;;;;;;9.70;5.22;;;5.40;99.90;;;;;;5111704;28;20034;-73
2021/01/19 03:17:35;;;;;;;13.07;5.40;;;5.30;99.90;;;;;;5111653;28;20026;-73
2021/01/19 03:20:04;;;;;;;14.32;5.18;;;5.30;99.90;;;;;;5111095;28;20149;-74
2021/01/19 03:22:30;;;;;;;10.13;4.43;;;5.30;99.90;;;;;;5110081;28;20353;-74
2021/01/19 03:24:56;;;;;;;10.85;4.43;;;5.30;99.90;;;;;;5093605;28;20035;-73
2021/01/19 03:27:21;;;;;;;11.80;4.15;;;5.20;99.90;;;;;;5111514;28;20046;-73
2021/01/19 03:29:47;;;;;;;10.45;4.97;;;5.30;99.90;;;;;;5111450;28;20495;-74
2021/01/19 03:32:12;;;;;;;9.80;4.63;;;5.20;99.90;;;;;;5111424;28;20103;-73
2021/01/19 03:34:39;;;;;;;8.20;4.15;;;5.30;99.90;;;;;;5111067;28;20076;-71
2021/01/19 03:37:05;;;;;;;8.15;3.25;;;5.30;99.90;;;;;;5111052;28;20022;-72
2021/01/19 03:39:31;;;;;;;10.38;4.78;;;5.30;99.90;;;;;;5111259;28;20024;-73
2021/01/19 03:41:57;;;;;;;11.15;4.90;;;5.20;99.90;;;;;;5110883;28;20411;-73
2021/01/19 03:44:23;;;;;;;9.60;4.47;;;5.20;99.90;;;;;;5111175;28;20020;-73
2021/01/19 03:46:49;;;;;;;11.10;4.53;;;5.20;99.90;;;;;;5109311;28;20461;-73
2021/01/19 03:49:14;;;;;;;8.57;4.20;;;5.20;99.90;;;;;;5111095;28;20058;-72
2021/01/19 03:51:40;;;;;;;10.45;4.82;;;5.20;99.90;;;;;;5111021;28;20024;-72
2021/01/19 03:54:05;;;;;;;8.80;4.80;;;5.10;99.90;;;;;;5111008;28;20023;-73
2021/01/19 03:56:31;;;;;;;11.07;5.00;;;5.10;99.90;;;;;;5110376;28;20031;-73
2021/01/19 03:58:57;;;;;;;11.45;5.10;;;5.10;99.90;;;;;;5110637;28;20032;-73
2021/01/19 04:01:22;;;;;;;14.32;5.57;;;5.10;99.90;;;;;;5109083;28;20058;-73
2021/01/19 04:03:48;;;;;;;12.35;5.50;;;5.10;99.90;;;;;;5110461;28;20024;-72
2021/01/19 04:06:13;;;;;;;13.43;5.78;;;5.10;99.90;;;;;;5109304;28;20024;-73
2021/01/19 04:08:39;;;;;;;12.88;5.00;;;5.10;99.90;;;;;;5110713;28;20095;-73
2021/01/19 04:11:06;;;;;;;11.63;4.63;;;5.10;99.90;;;;;;5108940;28;20469;-73
2021/01/19 04:13:32;;;;;;;11.02;4.90;;;5.10;99.90;;;;;;5100374;28;20023;-73
2021/01/19 04:15:58;;;;;;;9.80;4.40;;;5.10;99.90;;;;;;5097035;28;20032;-73
2021/01/19 04:18:24;;;;;;;11.63;4.22;;;5.10;99.90;;;;;;5096685;28;20491;-71
2021/01/19 04:20:50;;;;;;;6.88;3.70;;;5.10;99.90;;;;;;5096260;28;20034;-73
2021/01/19 04:23:16;;;;;;;13.32;4.30;;;5.00;99.90;;;;;;5096875;28;20037;-73
2021/01/19 04:25:44;;;;;;;12.10;3.78;;;5.00;99.90;;;;;;5096776;28;20028;-71
2021/01/19 04:28:10;;;;;;;9.10;3.65;;;5.10;99.90;;;;;;5095291;28;20027;-72
2021/01/19 04:30:36;;;;;;;16.25;4.40;;;5.00;99.90;;;;;;5096700;28;20017;-72
2021/01/19 04:33:01;;;;;;;7.53;3.30;;;5.00;99.90;;;;;;5096373;28;20073;-73
2021/01/19 04:35:27;;;;;;;13.93;3.10;;;5.10;99.90;;;;;;5094910;28;20074;-73
2021/01/19 04:37:52;;;;;;;8.98;2.90;;;5.20;99.90;;;;;;5096576;28;20016;-73
2021/01/19 04:40:19;;;;;;;10.98;2.90;;;5.20;99.90;;;;;;5096518;28;20400;-72
2021/01/19 04:42:44;;;;;;;16.05;3.60;;;5.20;99.90;;;;;;5096517;28;20035;-73
2021/01/19 04:45:10;;;;;;;11.18;2.63;;;5.20;99.90;;;;;;5096413;28;20043;-72
2021/01/19 04:47:37;;;;;;;16.05;3.95;;;5.20;99.90;;;;;;5096380;28;20434;-71
2021/01/19 04:50:08;;;;;;;9.80;3.55;;;5.30;99.90;;;;;;5096019;28;20024;-72
2021/01/19 04:52:34;;;;;;;8.13;3.15;;;5.20;99.90;;;;;;5095983;28;20023;-73
2021/01/19 04:55:27;;;;;;;9.32;3.10;;;5.20;99.90;;;;;;5095895;28;20373;-73
2021/01/19 04:58:01;;;;;;;14.50;3.17;;;5.20;99.90;;;;;;5095122;28;20457;-73
2021/01/19 05:00:32;;;;;;;12.95;3.22;;;5.20;99.90;;;;;;5095774;28;20081;-73
2021/01/19 05:03:21;;;;;;;6.95;2.63;;;5.20;99.90;;;;;;5094416;28;20046;-72
2021/01/19 05:06:00;;;;;;;7.68;2.88;;;5.20;99.90;;;;;;5096000;28;20027;-73
2021/01/19 05:08:42;;;;;;;8.77;3.40;;;5.30;99.90;;;;;;5096006;28;20099;-73
2021/01/19 05:11:29;;;;;;;12.40;2.97;;;5.30;99.90;;;;;;5096006;28;20016;-73
2021/01/19 05:13:58;;;;;;;10.73;2.58;;;5.30;99.90;;;;;;5094803;28;20050;-73
2021/01/19 05:16:29;;;;;;;9.68;3.05;;;5.30;99.90;;;;;;5095538;28;20020;-73
2021/01/19 05:18:55;;;;;;;10.73;2.95;;;5.30;99.90;;;;;;5095456;28;20077;-73
2021/01/19 05:21:21;;;;;;;11.82;2.65;;;5.30;99.90;;;;;;5095625;28;20031;-73
2021/01/19 05:23:47;;;;;;;13.05;3.15;;;5.30;99.90;;;;;;5094933;28;20055;-72
2021/01/19 05:26:16;;;;;;;7.72;3.00;;;5.30;99.90;;;;;;5093681;28;20081;-73
2021/01/19 05:28:57;;;;;;;11.05;2.75;;;5.20;99.90;;;;;;5094428;28;20020;-72
2021/01/19 05:31:30;;;;;;;7.65;2.83;;;5.20;99.90;;;;;;5094012;28;20165;-72
2021/01/19 05:34:00;;;;;;;7.57;3.20;;;5.20;99.90;;;;;;5095491;28;20020;-72
2021/01/19 05:36:44;;;;;;;12.10;3.90;;;5.10;99.90;;;;;;5094026;28;20016;-72
2021/01/19 05:39:10;;;;;;;;;;;5.10;99.90;;;;;;5094025;28;20119;-72
2021/01/19 05:41:42;;;;;;;11.15;3.40;;;5.00;99.90;;;;;;5093450;28;20288;-73
2021/01/19 05:44:32;;;;;;;15.40;3.60;;;5.00;99.90;;;;;;5093800;28;20020;-72
2021/01/19 05:47:04;;;;;;;11.10;3.05;;;5.00;99.90;;;;;;5094988;28;20093;-72
2021/01/19 05:49:33;;;;;;;11.63;3.42;;;5.00;99.90;;;;;;5094873;28;20024;-73
2021/01/19 05:52:18;;;;;;;12.80;3.33;;;5.00;99.90;;;;;;5093714;28;20047;-73
2021/01/19 05:54:46;;;;;;;8.02;2.85;;;4.90;99.90;;;;;;5093861;28;20024;-72
2021/01/19 05:57:14;;;;;;;9.38;2.75;;;4.90;99.90;;;;;;5093611;28;20115;-72
2021/01/19 05:59:43;;;;;;;13.73;3.35;;;5.00;99.90;;;;;;5093584;28;20032;-72
2021/01/19 06:02:13;;;;;;;11.77;4.00;;;5.00;99.90;;;;;;5076474;28;20046;-72
2021/01/19 06:04:52;;;;;;;12.60;3.30;;;5.00;99.90;;;;;;5076409;28;20488;-73
2021/01/19 06:07:23;;;;;;;7.53;2.95;;;4.90;99.90;;;;;;5093304;28;20424;-73
2021/01/19 06:09:50;;;;;;;6.88;3.58;;;5.00;99.90;;;;;;5076051;28;20031;-73
2021/01/19 06:12:16;;;;;;;13.55;3.33;;;4.90;99.90;;;;;;5093794;28;20019;-72
2021/01/19 06:14:51;;;;;;;11.77;3.55;;;4.90;99.90;;;;;;5093289;28;20024;-72
2021/01/19 06:17:22;;;;;;;12.15;3.17;;;5.00;99.90;;;;;;5076191;28;20020;-72
2021/01/19 06:19:50;;;;;;;9.82;2.80;;;5.00;99.90;;;;;;5093222;28;20031;-73
2021/01/19 06:22:17;;;;;;;9.73;3.25;;;5.00;99.90;;;;;;5093094;28;20081;-73
2021/01/19 06:24:46;;;;;;;12.20;3.60;;;5.00;99.90;;;;;;5092830;28;20012;-73
2021/01/19 06:27:26;;;;;;;13.63;3.70;;;5.00;99.90;;;;;;5092686;28;20020;-73
2021/01/19 06:30:03;;;;;;;10.63;3.10;;;4.90;99.90;;;;;;5076573;28;20024;-72
2021/01/19 06:32:33;;;;;;;9.55;3.53;;;5.00;99.90;;;;;;5094148;28;20043;-72
2021/01/19 06:35:20;;;;;;;13.18;3.30;;;5.00;99.90;;;;;;5094395;28;20024;-72
2021/01/19 06:37:48;;;;;;;10.40;3.58;;;5.00;99.90;;;;;;5092485;28;20077;-73
2021/01/19 06:40:16;;;;;;;10.10;3.65;;;4.90;99.90;;;;;;5092904;28;20032;-73
2021/01/19 06:42:50;;;;;;;12.48;3.42;;;4.90;99.90;;;;;;5092789;28;20035;-72
2021/01/19 06:45:16;;;;;;;11.32;3.38;;;4.80;99.90;;;;;;5092514;28;20020;-72
2021/01/19 06:47:49;;;;;;;8.50;3.10;;;4.80;99.90;;;;;;5092835;28;20024;-73
2021/01/19 06:50:19;;;;;;;8.38;2.97;;;4.80;99.90;;;;;;5092762;28;20048;-73
2021/01/19 06:52:58;;;;;;;8.40;3.38;;;4.80;99.90;;;;;;5094084;28;20024;-73
2021/01/19 06:55:30;;;;;;;14.45;3.55;;;4.80;99.90;;;;;;5092340;28;20028;-72
2021/01/19 06:58:22;;;;;;;10.32;3.50;;;4.80;99.90;;;;;;5092386;28;20031;-72
2021/01/19 07:00:59;;;;;;;13.47;3.73;;;4.80;99.90;;;;;;5092768;28;20040;-73
2021/01/19 07:03:24;;;;;;;16.95;4.57;;;4.80;99.90;;;;;;5094113;28;20031;-72
2021/01/19 07:05:54;;;;;;;8.68;3.80;;;4.80;99.90;;;;;;5092491;28;20020;-72
2021/01/19 07:11:12;;;;;;;7.57;3.55;;;4.80;99.90;;;;;;5112134;27;20449;-72
2021/01/19 07:13:41;;;;;;;7.97;2.85;;;4.80;99.90;;;;;;5111349;28;20028;-72
2021/01/19 07:16:09;;;;;;;6.93;2.80;;;4.80;99.90;;;;;;5111788;28;20031;-72
2021/01/19 07:19:14;;;;;;;7.20;2.65;;;4.90;99.90;;;;;;5110743;28;20062;-72
2021/01/19 07:21:58;;;;;;;7.32;2.92;;;4.80;99.90;;;;;;5111105;28;20020;-72
2021/01/19 07:24:26;;;;;;;8.52;2.60;;;4.80;99.90;;;;;;5112088;28;20028;-72
2021/01/19 07:26:53;;;;;;;12.48;3.17;;;4.90;99.90;;;;;;5109968;28;20024;-72
2021/01/19 07:29:21;;;;;;;6.50;2.53;;;4.90;99.90;;;;;;5097065;28;20081;-72
2021/01/19 07:31:46;;;;;;;11.98;3.05;;;4.90;99.90;;;;;;5111136;28;20078;-71
2021/01/19 07:34:15;;;;;;;7.13;2.75;;;4.90;99.90;;;;;;5110450;28;20028;-71
2021/01/19 07:36:40;;;;;;;5.63;3.05;;;4.90;99.90;;;;;;5112839;28;20027;-71
2021/01/19 07:39:16;;;;;;;7.30;3.00;;;4.90;99.90;;;;;;5111555;28;20027;-70
2021/01/19 07:41:42;;;;;;;5.72;2.78;;;4.90;99.90;;;;;;5110200;28;20063;-70
2021/01/19 07:44:17;;;;;;;9.25;2.97;;;4.90;99.90;;;;;;5106606;28;20071;-70
2021/01/19 07:46:43;;;;;;;6.20;2.60;;;4.90;99.90;;;;;;5106865;28;20456;-70
2021/01/19 07:49:10;;;;;;;5.07;2.70;;;4.90;99.90;;;;;;5110791;28;20020;-70
2021/01/19 07:51:45;;;;;;;7.72;2.78;;;4.80;99.90;;;;;;5092130;28;20031;-71
2021/01/19 07:54:12;;;;;;;9.07;2.85;;;4.90;99.90;;;;;;5111300;28;20099;-71
2021/01/19 07:56:39;;;;;;;6.30;2.92;;;4.80;99.90;;;;;;5110428;28;20027;-71
2021/01/19 07:59:15;;;;;;;6.88;2.78;;;4.90;99.90;;;;;;5110372;28;20046;-71
2021/01/19 08:01:41;;;;;;;6.43;2.85;;;4.80;99.90;;;;;;5109123;28;20062;-70
2021/01/19 08:04:10;;;;;;;9.20;2.60;;;4.80;99.90;;;;;;5110749;28;20427;-70
2021/01/19 08:06:36;;;;;;;4.72;2.60;;;4.80;99.90;;;;;;5092084;28;20492;-70
2021/01/19 08:09:12;;;;;;;4.57;2.80;;;4.90;99.90;;;;;;5109099;28;20050;-70
2021/01/19 08:11:39;;;;;;;4.05;2.50;;;4.90;99.90;;;;;;5110765;28;20020;-72
2021/01/19 08:14:05;;;;;;;8.82;2.95;;;4.90;99.90;;;;;;5110201;28;20023;-70
2021/01/19 08:16:32;;;;;;;5.38;2.70;;;4.90;99.90;;;;;;5110125;28;20468;-72
2021/01/19 08:19:15;;;;;;;7.35;3.05;;;4.90;99.90;;;;;;5110707;28;20431;-73
2021/01/19 08:21:56;;;;;;;;;;;4.90;99.90;;;;;;5098998;28;20073;-70
2021/01/19 08:24:23;;;;;;;5.68;2.63;;;4.90;99.90;;;;;;5096284;28;19908;-70
2021/01/19 08:26:49;;;;;;;4.97;2.20;;;4.90;99.90;;;;;;5077743;28;20148;-70
2021/01/19 08:29:19;;;;;;;7.78;2.88;;;4.90;99.90;;;;;;5077979;28;20029;-70
2021/01/19 08:31:51;;;;;;;5.35;2.10;;;4.90;99.90;;;;;;5096119;28;20026;-71
2021/01/19 08:34:18;;;;;;;4.68;2.10;;;5.00;99.90;;;;;;5095939;28;20016;-72
2021/01/19 08:36:45;;;;;;;5.68;2.50;;;5.00;99.90;;;;;;5096143;28;20027;-72
2021/01/19 08:39:11;;;;;;;5.10;2.53;;;5.00;99.90;;;;;;5094508;28;20016;-70
2021/01/19 08:41:42;;;;;;;4.63;1.98;;;5.00;99.90;;;;;;5094140;28;20027;-71
2021/01/19 08:44:07;;;;;;;3.47;2.20;;;5.00;99.90;;;;;;5081487;28;20028;-71
2021/01/19 08:46:33;;;;;;;6.93;2.03;;;5.00;99.90;;;;;;5094347;28;20032;-71
2021/01/19 08:49:04;;;;;;;3.42;2.33;;;5.00;99.90;;;;;;5096096;28;20035;-72
2021/01/19 08:51:30;;;;;;;5.10;2.53;;;4.90;99.90;;;;;;5094634;28;20054;-71
2021/01/19 09:00:39;;;;;;;4.50;2.35;;;5.00;99.90;;;;;;5065730;28;20082;-72
2021/01/19 09:03:14;;;;;;;2.38;1.92;;;4.90;99.90;;;;;;5075334;28;20024;-72
2021/01/19 09:05:40;;;;;;;9.18;2.45;;;4.90;99.90;;;;;;5075176;28;20035;-72
2021/01/19 09:08:15;;;;;;;2.30;1.85;;;4.80;99.90;;;;;;5076745;28;20078;-73
2021/01/19 09:10:41;;;;;;;4.32;1.85;;;4.80;99.90;;;;;;5074187;28;20472;-73
2021/01/19 09:13:08;;;;;;;2.55;1.67;;;4.80;99.90;;;;;;5074551;28;20020;-70
2021/01/19 09:15:39;;;;;;;4.20;1.70;;;4.80;99.90;;;;;;5075372;28;20085;-72
2021/01/19 09:18:09;;;;;;;1.98;1.58;;;4.80;99.90;;;;;;5075093;28;20066;-70
2021/01/19 09:20:35;;;;;;;3.25;1.70;;;4.80;99.90;;;;;;5075634;28;20426;-70
2021/01/19 09:23:15;;;;;;;2.63;1.77;;;4.80;99.90;;;;;;5076430;28;20060;-72
2021/01/19 09:25:41;;;;;;;1.92;1.30;;;4.80;99.90;;;;;;5074444;28;20021;-72
2021/01/19 09:28:07;;;;;;;3.92;1.80;;;4.80;99.90;;;;;;5075010;28;20124;-71
2021/01/19 09:30:36;;;;;;;3.05;1.50;;;4.80;99.90;;;;;;5074953;28;20541;-71
2021/01/19 09:33:03;;;;;;;3.05;1.73;;;4.80;99.90;;;;;;5073897;28;20021;-71
2021/01/19 09:35:29;;;;;;;1.50;1.40;;;4.70;99.90;;;;;;5074687;28;20042;-71
2021/01/19 09:37:55;;;;;;;2.42;1.27;;;4.70;99.90;;;;;;5074400;28;20482;-71
2021/01/19 09:40:32;;;;;;;2.63;1.63;;;4.80;99.90;;;;;;5074401;28;20033;-71
2021/01/19 09:43:03;;;;;;;1.73;1.35;;;4.70;99.90;;;;;;5074767;28;20024;-71
2021/01/19 09:45:29;;;;;;;1.60;1.30;;;4.70;99.90;;;;;;5074321;28;20044;-71
2021/01/19 09:47:55;;;;;;;3.30;1.48;;;4.80;99.90;;;;;;5074349;28;20462;-71
2021/01/19 09:50:21;;;;;;;3.40;1.80;;;4.70;99.90;;;;;;5073976;28;20028;-71
2021/01/19 09:52:47;;;;;;;3.25;1.50;;;4.70;99.90;;;;;;5074172;28;20070;-71
2021/01/19 09:55:16;;;;;;;5.82;1.85;;;4.70;99.90;;;;;;5074189;28;20134;-71
2021/01/19 09:57:42;;;;;;;1.52;1.13;;;4.70;99.90;;;;;;5074825;28;20024;-71
2021/01/19 10:00:10;;;;;;;3.22;1.42;;;4.70;99.90;;;;;;5072831;28;20024;-71
2021/01/19 10:02:38;;;;;;;7.72;1.70;;;4.80;99.90;;;;;;5073828;28;20469;-71
2021/01/19 10:05:06;;;;;;;3.40;1.60;;;4.80;99.90;;;;;;5074183;28;20040;-71
2021/01/19 10:07:32;;;;;;;2.15;1.50;;;4.80;99.90;;;;;;5074016;28;20025;-71
2021/01/19 10:10:14;;;;;;;2.25;1.60;;;4.80;99.90;;;;;;5075656;28;20154;-69
2021/01/19 10:12:42;;;;;;;3.33;1.67;;;4.80;99.90;;;;;;5074266;28;20070;-71
2021/01/19 10:15:08;;;;;;;3.45;2.15;;;4.80;99.90;;;;;;5073794;28;20016;-71
2021/01/19 10:17:35;;;;;;;5.35;1.85;;;4.80;99.90;;;;;;5074170;28;20108;-71
2021/01/19 10:20:08;;;;;;;2.35;1.65;;;4.80;99.90;;;;;;5073894;28;20039;-71
2021/01/19 10:22:48;;;;;;;4.40;2.03;;;4.90;99.90;;;;;;5075977;28;20028;-71
2021/01/19 10:25:26;;;;;;;2.10;1.70;;;4.90;99.90;;;;;;5059914;28;20033;-69
2021/01/19 10:27:56;;;;;;;3.00;1.90;;;4.90;99.90;;;;;;5073435;28;20021;-70
2021/01/19 10:30:31;;;;;;;4.57;2.13;;;4.90;99.90;;;;;;5073625;28;20020;-69
2021/01/19 10:32:57;;;;;;;2.35;1.45;;;4.90;99.90;;;;;;5073389;28;20017;-70
2021/01/19 10:35:26;;;;;;;2.40;1.52;;;4.90;99.90;;;;;;5072314;28;20082;-69
2021/01/19 10:37:54;;;;;;;3.38;1.35;;;4.90;99.90;;;;;;5073624;28;20469;-70
2021/01/19 10:40:20;;;;;;;2.38;1.90;;;5.00;99.90;;;;;;5071015;28;20050;-69
2021/01/19 10:42:46;;;;;;;2.50;2.13;;;5.00;99.90;;;;;;5071122;28;20029;-69
2021/01/19 10:45:21;;;;;;;2.28;1.77;;;5.00;99.90;;;;;;5072055;28;20020;-70
2021/01/19 10:47:46;;;;;;;3.20;1.70;;;5.00;99.90;;;;;;5072393;28;20036;-68
2021/01/19 10:50:16;;;;;;;4.35;2.30;;;5.00;99.90;;;;;;5072358;28;20028;-70
2021/01/19 10:52:51;;;;;;;4.38;2.33;;;5.00;99.90;;;;;;5072101;28;20012;-70
2021/01/19 10:55:16;;;;;;;6.35;2.15;;;5.10;99.90;;;;;;5055366;28;20020;-69
2021/01/19 10:57:43;;;;;;;9.40;2.97;;;5.10;99.90;;;;;;5072242;28;20099;-68
2021/01/19 11:00:09;;;;;;;3.95;2.13;;;5.10;99.90;;;;;;5073865;28;20028;-70
2021/01/19 11:02:35;;;;;;;3.83;2.55;;;5.20;99.90;;;;;;5073534;28;20028;-69
2021/01/19 11:05:00;;;;;;;2.75;2.33;;;5.20;99.90;;;;;;5071793;28;20530;-70
2021/01/19 11:07:26;;;;;;;4.15;2.63;;;5.30;99.90;;;;;;5072682;28;20036;-70
2021/01/19 11:09:51;;;;;;;5.28;3.00;;;5.30;99.90;;;;;;5072921;28;20052;-70
2021/01/19 11:12:18;;;;;;;6.45;3.10;;;5.40;99.90;;;;;;5071995;28;20023;-68
2021/01/19 11:14:43;;;;;;;4.03;2.90;;;5.40;99.90;;;;;;5073879;28;20021;-68
2021/01/19 11:17:09;;;;;;;4.18;2.15;;;5.40;99.90;;;;;;5072822;28;20452;-70
2021/01/19 11:19:34;;;;;;;3.65;2.60;;;5.50;99.90;;;;;;5072326;28;20035;-69
2021/01/19 11:22:00;;;;;;;3.22;2.60;;;5.50;99.90;;;;;;5072189;28;20107;-68
2021/01/19 11:24:25;;;;;;;5.05;3.00;;;5.50;99.90;;;;;;5071811;28;20031;-69
2021/01/19 11:26:51;;;;;;;4.05;3.42;;;5.60;99.90;;;;;;5071565;28;20023;-68
2021/01/19 11:29:16;;;;;;;4.88;3.50;;;5.60;99.90;;;;;;5072837;28;20024;-68
2021/01/19 11:31:42;;;;;;;5.22;3.88;;;5.60;99.90;;;;;;5072798;28;20465;-68
2021/01/19 11:34:09;;;;;;;6.72;4.10;;;5.60;99.90;;;;;;5071859;28;20522;-68
2021/01/19 11:36:38;;;;;;;6.95;4.80;;;5.70;99.90;;;;;;5073158;28;20021;-68
2021/01/19 11:39:07;;;;;;;6.82;4.93;;;5.70;99.90;;;;;;5071038;28;20381;-69
2021/01/19 11:41:33;;;;;;;7.22;4.95;;;5.80;99.90;;;;;;5070820;28;20025;-68
2021/01/19 11:43:58;;;;;;;5.30;3.95;;;5.80;99.90;;;;;;5072486;28;20031;-67
2021/01/19 11:46:26;;;;;;;7.68;4.85;;;5.90;99.90;;;;;;5072191;28;20032;-68
2021/01/19 11:48:54;;;;;;;6.93;5.18;;;6.00;99.90;;;;;;5071982;28;20480;-69
2021/01/19 11:51:22;;;;;;;7.25;5.55;;;6.00;99.90;;;;;;5072735;28;20025;-70
2021/01/19 11:53:50;;;;;;;7.00;5.72;;;6.00;99.90;;;;;;5070956;28;20033;-70
2021/01/19 11:56:16;;;;;;;6.63;5.05;;;6.10;99.90;;;;;;5073683;28;20024;-70
2021/01/19 11:58:43;;;;;;;8.82;5.00;;;6.10;99.90;;;;;;5075869;28;20013;-70
2021/01/19 12:01:15;;;;;;;5.85;4.82;;;6.20;99.90;;;;;;5075922;28;20378;-70
2021/01/19 12:03:40;;;;;;;8.73;4.85;;;6.20;99.90;;;;;;5075709;28;20028;-70
2021/01/19 12:06:06;;;;;;;7.50;4.88;;;6.30;99.90;;;;;;5075754;28;20024;-70
2021/01/19 12:08:31;;;;;;;8.93;5.03;;;6.40;99.90;;;;;;5075643;28;20381;-70
2021/01/19 12:10:57;;;;;;;8.05;4.95;;;6.40;99.90;;;;;;5075926;28;20052;-70
2021/01/19 12:13:22;;;;;;;6.72;4.40;;;6.50;99.90;;;;;;5076054;28;20021;-69
2021/01/19 12:15:48;;;;;;;8.55;4.40;;;6.50;99.90;;;;;;5075549;28;20016;-69
2021/01/19 12:18:13;;;;;;;7.10;4.78;;;6.60;99.90;;;;;;5075457;28;20024;-70
2021/01/19 12:20:39;;;;;;;4.68;3.47;;;6.60;99.90;;;;;;5075876;28;20033;-70
2021/01/19 12:23:05;;;;;;;7.47;5.03;;;6.70;99.90;;;;;;5075717;28;20470;-68
2021/01/19 12:25:31;;;;;;;6.53;3.85;;;6.70;99.90;;;;;;5075966;28;20033;-68
2021/01/19 12:27:57;;;;;;;5.75;4.07;;;6.70;99.90;;;;;;5075804;28;20035;-70
2021/01/19 12:30:23;;;;;;;5.65;4.68;;;6.80;99.90;;;;;;5074384;28;20020;-70
2021/01/19 12:32:49;;;;;;;5.20;4.13;;;6.90;99.90;;;;;;5075628;28;20024;-68
2021/01/19 12:35:15;;;;;;;5.45;3.78;;;6.90;99.90;;;;;;5075390;28;20153;-69
2021/01/19 12:37:40;;;;;;;4.82;4.13;;;6.90;99.90;;;;;;5075498;28;20028;-68
2021/01/19 12:40:07;;;;;;;5.85;3.45;;;6.90;99.90;;;;;;5074616;28;20031;-69
2021/01/19 12:42:33;;;;;;;5.38;3.63;;;7.00;99.90;;;;;;5075868;28;20033;-69
2021/01/19 12:44:59;;;;;;;6.53;4.18;;;7.10;99.90;;;;;;5073963;28;20454;-69
2021/01/19 12:47:25;;;;;;;4.32;3.47;;;7.10;99.90;;;;;;5075544;28;20108;-69
2021/01/19 12:49:51;;;;;;;7.47;3.97;;;7.10;99.90;;;;;;5075075;28;20485;-69
2021/01/19 12:52:16;;;;;;;7.47;3.40;;;7.10;99.90;;;;;;5075436;28;20114;-69
2021/01/19 12:54:42;;;;;;;7.45;4.00;;;7.10;99.90;;;;;;5075249;28;20027;-70
2021/01/19 12:57:13;;;;;;;7.88;4.22;;;7.10;99.90;;;;;;5074832;28;20059;-69
2021/01/19 12:59:40;;;;;;;6.95;4.00;;;7.10;99.90;;;;;;5074068;28;20019;-69
2021/01/19 13:02:05;;;;;;;9.43;4.70;;;7.20;99.90;;;;;;5073093;28;20056;-70
2021/01/19 13:04:31;;;;;;;6.63;4.40;;;7.20;99.90;;;;;;5074360;28;20025;-69
2021/01/19 13:06:57;;;;;;;8.45;4.35;;;7.30;99.90;;;;;;5075012;28;20021;-69
2021/01/19 13:09:22;;;;;;;5.32;4.30;;;7.30;99.90;;;;;;5074073;28;20049;-70
2021/01/19 13:11:48;;;;;;;7.28;3.95;;;7.40;99.90;;;;;;5074464;28;20094;-69
2021/01/19 13:14:13;;;;;;;5.15;3.80;;;7.40;99.90;;;;;;5075129;28;20465;-68
2021/01/19 13:16:39;;;;;;;5.45;4.50;;;7.50;99.90;;;;;;5074061;28;20475;-69
2021/01/19 13:19:05;;;;;;;6.15;4.32;;;7.50;99.90;;;;;;5074483;28;20033;-70
2021/01/19 13:21:30;;;;;;;7.90;5.20;;;7.50;99.90;;;;;;5074831;28;20390;-69
2021/01/19 13:23:56;;;;;;;7.93;4.57;;;7.50;99.90;;;;;;5074196;28;20025;-70